Airfield :
LOGIN :

Register | Disclaimer

   EN    FR    IT 

 










Legend :    VFR   Marginal VFR   IFR   Intensive IFR   Very Intensive IFR
Visi :
Ceiling :
>= 8 km
>= 3000ft
5 to 8 km
1000 to 3000 ft
1500m to 5 km
500 to 1000 ft
800 to 1500m
200 to 500 ft
< 800m
< 200 ft
Symbols :   Thunderstorms  Fog  Heavy snow  Heavy precipitations  Wind > 20 kt
SIGMETs :     Misc.  Thunderstorms  Icing  Turbulence  Mountain Waves  Volcanic Ashes






- Airport Elevation : 512 ft
- IATA code : URO


LFOP - Rouen Vallée de Seine

CURRENT METAR :
  • 032330Z AUTO 30005KT CAVOK 12/10 Q1022

EXPIRED METARs :
  • 032300Z AUTO 30005KT CAVOK 12/09 Q1022
  • 032230Z AUTO 30004KT CAVOK 13/09 Q1022
  • 032200Z AUTO 29005KT CAVOK 13/09 Q1022
  • 032130Z AUTO 29002KT CAVOK 13/09 Q1022
  • 032100Z AUTO 30005KT CAVOK 14/09 Q1022

TAF TAF LFOP
Valid from the 03 at 18:00 until the 04 at 18:00 UTC


031700Z 0318/0418 29008KT 9999 BKN040
BECMG 0400/0403 3000 BR
PROB30 0403/0406 0300 FG VV///
BECMG 0406/0409 9999 NSW
ATIS : +33 2 35 80 80 34
Met : +33 2 32 86 52 80



MET'MAP, your aeronautical weather chart ! - Copyright ORBIFLY December 2007 - Disclaimer

ORBIFLY MET'MAP TEAM :

Programming & Development : Alexandra Zaïnal
Original concept : Baudouin d'Aumeries
Technical & hardware support : Manuel Goepfert
Assistance : Marc-Olivier Méhu




SOURCES & CREDITS :

   NOAA